Time;durP1;ratioP1;P1;durP2;ratioP2;P2;SDS_P1;SDS_P2;PMS_P1;PMS_P2;Temp;Humidity;BMP_temperature;BMP_pressure;BME280_temperature;BME280_humidity;BME280_pressure;Samples;Min_cycle;Max_cycle;Signal;HPM_P1;HPM_P2
2021/11/24 00:01:05;;;;;;;21.23;12.50;;;10.70;99.90;;;11.04;80.71;102707.75;5055157;28;20087;-72
2021/11/24 00:03:34;;;;;;;18.77;13.25;;;10.80;99.90;;;11.15;80.33;102709.81;5055231;28;20049;-72
2021/11/24 00:06:04;;;;;;;19.45;13.68;;;10.90;99.90;;;11.20;80.08;102702.88;5055530;28;20041;-73
2021/11/24 00:08:32;;;;;;;19.10;12.85;;;10.90;99.90;;;11.28;79.78;102721.59;5055583;28;20052;-72
2021/11/24 00:11:01;;;;;;;18.88;13.90;;;11.00;99.90;;;11.35;79.69;102716.44;5055037;28;20174;-73
2021/11/24 00:13:29;;;;;;;19.58;13.77;;;11.00;99.90;;;11.38;79.39;102713.84;5055580;28;20048;-73
2021/11/24 00:15:58;;;;;;;20.63;13.93;;;11.10;99.90;;;11.43;79.20;102709.56;5055013;28;20073;-73
2021/11/24 00:18:26;;;;;;;23.02;13.57;;;11.10;99.90;;;11.45;78.97;102699.91;5054618;28;20079;-73
2021/11/24 00:20:55;;;;;;;18.10;13.05;;;11.10;99.90;;;11.49;78.84;102706.16;5055217;28;20036;-72
2021/11/24 00:23:24;;;;;;;18.70;13.80;;;11.10;99.90;;;11.54;78.87;102704.47;5055450;28;20114;-73
2021/11/24 00:25:53;;;;;;;18.80;14.25;;;11.20;99.90;;;11.57;78.55;102715.16;5054859;28;20045;-73
2021/11/24 00:28:21;;;;;;;18.65;14.30;;;11.20;99.90;;;11.60;78.13;102708.16;5053722;28;20071;-72
2021/11/24 00:30:50;;;;;;;19.15;14.20;;;11.30;99.90;;;11.71;77.99;102703.13;5070498;28;20443;-72
2021/11/24 00:33:18;;;;;;;18.02;14.32;;;11.30;99.90;;;11.73;77.64;102702.28;5054933;28;20120;-72
2021/11/24 00:35:47;;;;;;;18.95;14.63;;;11.40;99.90;;;11.74;77.48;102701.44;5054769;28;20037;-72
2021/11/24 00:38:15;;;;;;;18.63;14.07;;;11.40;99.90;;;11.83;77.11;102706.00;5054687;28;20049;-72
2021/11/24 00:40:45;;;;;;;21.85;15.50;;;11.50;99.90;;;11.90;77.12;102697.31;5054578;28;20044;-72
2021/11/24 00:43:14;;;;;;;21.02;14.65;;;11.50;99.90;;;11.89;76.87;102697.28;5054709;28;20103;-72
2021/11/24 00:45:42;;;;;;;18.75;15.30;;;11.60;99.90;;;11.89;76.73;102699.91;5054937;28;20080;-72
2021/11/24 00:48:11;;;;;;;21.42;15.70;;;11.60;99.90;;;11.92;76.59;102700.91;5054600;28;20114;-73
2021/11/24 00:50:39;;;;;;;16.98;14.25;;;11.60;99.90;;;11.85;76.83;102701.63;5054787;28;20400;-71
2021/11/24 00:53:07;;;;;;;20.83;14.07;;;11.50;99.90;;;11.84;76.90;102701.59;5069927;28;20049;-72
2021/11/24 00:55:36;;;;;;;22.60;15.02;;;11.50;99.90;;;11.81;77.10;102698.91;5054660;28;20406;-72
2021/11/24 00:58:06;;;;;;;18.98;14.57;;;11.40;99.90;;;11.82;76.94;102696.28;5054244;28;20494;-72
2021/11/24 01:00:34;;;;;;;24.33;15.53;;;11.40;99.90;;;11.54;77.08;102670.94;5054189;28;20128;-72
2021/11/24 01:03:03;;;;;;;23.05;15.63;;;11.40;99.90;;;11.44;77.65;102695.44;5054089;28;20048;-72
2021/11/24 01:05:31;;;;;;;17.40;13.60;;;11.20;99.90;;;11.14;78.71;102681.53;5054362;28;20044;-72
2021/11/24 01:08:00;;;;;;;18.20;13.98;;;10.80;99.90;;;11.11;79.51;102681.44;5053921;28;20044;-72
2021/11/24 01:10:28;;;;;;;21.10;14.55;;;10.70;99.90;;;11.22;79.45;102673.75;5054014;28;20048;-72
2021/11/24 01:12:57;;;;;;;20.83;13.40;;;10.80;99.90;;;11.27;79.27;102675.66;5054007;28;20049;-72
2021/11/24 01:15:27;;;;;;;23.05;16.70;;;10.90;99.90;;;11.27;79.32;102667.69;5054080;28;20111;-72
2021/11/24 01:17:56;;;;;;;22.67;15.05;;;10.90;99.90;;;11.33;79.07;102667.84;5052735;28;20450;-72
2021/11/24 01:20:26;;;;;;;;;;;11.00;99.90;;;11.40;78.78;102661.78;5053171;28;20047;-72
2021/11/24 01:22:55;;;;;;;26.45;19.58;;;11.00;99.90;;;11.45;78.96;102657.50;5054045;28;20019;-72
2021/11/24 01:25:23;;;;;;;26.70;19.40;;;11.10;99.90;;;11.53;78.28;102655.91;5053612;28;20491;-72
2021/11/24 01:27:52;;;;;;;25.92;18.95;;;11.20;99.90;;;11.56;78.35;102663.91;5052995;28;20095;-72
2021/11/24 01:30:20;;;;;;;21.30;15.35;;;11.20;99.90;;;11.61;77.99;102658.69;5053472;28;20037;-72
2021/11/24 01:32:50;;;;;;;22.35;16.02;;;11.30;99.90;;;11.62;77.58;102663.13;5053704;28;20041;-72
2021/11/24 01:35:18;;;;;;;24.00;17.92;;;11.30;99.90;;;11.49;77.52;102639.91;5053458;28;20037;-72
2021/11/24 01:37:47;;;;;;;29.40;20.70;;;11.30;99.90;;;11.49;77.94;102659.34;5053703;28;20075;-72
2021/11/24 01:40:15;;;;;;;27.92;19.10;;;11.10;99.90;;;11.57;77.86;102660.41;5053321;28;20041;-72
2021/11/24 01:42:44;;;;;;;24.60;18.92;;;11.20;99.90;;;11.50;78.00;102661.13;5053875;28;20175;-72
2021/11/24 01:45:19;;;;;;;25.88;19.42;;;11.20;99.90;;;11.26;78.81;102650.03;5053245;28;20147;-72
2021/11/24 01:47:49;;;;;;;21.98;15.82;;;10.90;99.90;;;11.30;78.59;102656.28;5052064;28;20478;-72
2021/11/24 01:50:18;;;;;;;23.88;16.52;;;10.90;99.90;;;11.28;78.59;102656.25;5051419;28;20053;-72
2021/11/24 01:52:47;;;;;;;23.33;17.02;;;10.90;99.90;;;11.24;78.56;102638.50;5053111;28;20037;-72
2021/11/24 01:55:17;;;;;;;29.67;20.00;;;11.00;99.90;;;11.34;78.32;102648.41;5053309;28;20076;-72
2021/11/24 01:57:49;;;;;;;25.58;18.52;;;11.00;99.90;;;11.37;78.17;102647.59;5053536;28;20049;-72
2021/11/24 02:00:23;;;;;;;25.48;18.75;;;11.00;99.90;;;11.37;78.24;102648.50;5053503;28;20052;-72
2021/11/24 02:02:53;;;;;;;25.23;18.08;;;11.00;99.90;;;11.31;78.14;102650.09;5052919;28;20132;-72
2021/11/24 02:05:23;;;;;;;26.63;19.15;;;11.00;99.90;;;11.29;78.28;102649.19;5052890;28;20049;-72
2021/11/24 02:07:52;;;;;;;24.75;18.48;;;11.00;99.90;;;11.23;78.53;102642.00;5052688;28;20072;-72
2021/11/24 02:10:21;;;;;;;25.77;18.92;;;10.90;99.90;;;11.31;78.34;102645.72;5051682;28;20114;-72
2021/11/24 02:12:51;;;;;;;30.35;19.70;;;10.90;99.90;;;11.17;78.49;102615.38;5052647;28;20493;-72
2021/11/24 02:15:21;;;;;;;26.30;19.08;;;11.00;99.90;;;11.37;78.54;102637.00;5052945;28;20099;-72
2021/11/24 02:17:51;;;;;;;24.83;18.70;;;11.00;99.90;;;11.47;78.20;102631.94;5068406;28;20099;-72
2021/11/24 02:20:37;;;;;;;26.17;21.00;;;11.10;99.90;;;11.45;78.47;102625.69;5052925;28;20067;-72
2021/11/24 02:23:08;;;;;;;33.30;24.42;;;11.10;99.90;;;11.54;78.19;102624.97;5052605;28;20075;-72
2021/11/24 02:25:37;;;;;;;31.60;24.20;;;11.20;99.90;;;11.35;78.21;102620.16;5052648;28;20120;-72
2021/11/24 02:28:06;;;;;;;30.13;23.35;;;11.00;99.90;;;11.04;79.38;102612.44;5052472;28;20069;-72
2021/11/24 02:30:35;;;;;;;34.45;24.67;;;10.70;99.90;;;10.94;80.22;102611.34;5052432;28;20079;-72
2021/11/24 02:33:04;;;;;;;30.23;22.70;;;10.60;99.90;;;11.17;79.92;102607.44;5052444;28;20041;-73
2021/11/24 02:35:34;;;;;;;32.97;23.73;;;10.70;99.90;;;11.28;79.51;102605.94;5052420;28;20045;-72
2021/11/24 02:38:03;;;;;;;32.78;24.70;;;10.90;99.90;;;11.35;79.22;102597.22;5052702;28;20517;-72
2021/11/24 02:40:33;;;;;;;33.25;23.63;;;11.00;99.90;;;11.37;79.03;102597.25;5052121;28;20073;-72
2021/11/24 02:43:03;;;;;;;32.72;24.80;;;11.00;99.90;;;11.12;79.40;102590.56;5052343;28;20045;-72
2021/11/24 02:45:33;;;;;;;35.03;25.30;;;10.80;99.90;;;10.93;79.71;102538.09;5052585;28;20084;-72
2021/11/24 02:48:01;;;;;;;31.00;24.60;;;10.80;99.90;;;10.79;80.70;102580.16;5052191;28;20487;-72
2021/11/24 02:50:30;;;;;;;33.25;24.98;;;10.50;99.90;;;10.33;82.19;102573.75;5052299;28;20052;-72
2021/11/24 02:53:00;;;;;;;32.88;23.40;;;10.20;99.90;;;10.48;83.04;102569.72;5052514;28;20120;-72
2021/11/24 02:55:28;;;;;;;36.47;25.42;;;10.10;99.90;;;10.69;82.39;102572.84;5052528;28;20075;-72
2021/11/24 02:57:57;;;;;;;36.25;26.25;;;10.30;99.90;;;10.77;81.91;102578.31;5052787;28;20390;-72
2021/11/24 03:00:29;;;;;;;41.10;27.92;;;10.40;99.90;;;10.61;82.22;102560.28;5052155;28;20128;-72
2021/11/24 03:02:58;;;;;;;37.05;28.02;;;10.40;99.90;;;10.60;82.33;102564.72;5052523;28;20056;-73
2021/11/24 03:05:29;;;;;;;42.30;28.88;;;10.40;99.90;;;10.49;82.56;102552.09;5052154;28;20056;-72
2021/11/24 03:08:00;;;;;;;40.33;29.08;;;10.30;99.90;;;10.46;83.05;102539.69;5052389;28;20045;-72
2021/11/24 03:10:32;;;;;;;40.97;29.75;;;10.30;99.90;;;10.43;83.23;102555.47;5052210;28;20130;-72
2021/11/24 03:13:01;;;;;;;38.35;30.00;;;10.30;99.90;;;10.49;83.07;102547.69;5052687;28;20049;-72
2021/11/24 03:15:30;;;;;;;42.17;30.92;;;10.30;99.90;;;10.15;83.20;102473.72;5052159;28;20479;-72
2021/11/24 03:17:59;;;;;;;40.88;29.77;;;10.30;99.90;;;10.52;82.91;102529.25;5052090;28;20079;-72
2021/11/24 03:20:28;;;;;;;41.35;30.63;;;10.40;99.90;;;10.58;83.07;102534.69;5067846;28;20060;-72
2021/11/24 03:23:00;;;;;;;40.13;29.10;;;10.40;99.90;;;10.56;83.01;102525.81;5052692;28;20159;-72
2021/11/24 03:25:29;;;;;;;43.80;29.90;;;10.40;99.90;;;10.70;83.04;102526.13;5052516;28;20045;-72
2021/11/24 03:27:57;;;;;;;35.55;27.48;;;10.40;99.90;;;10.88;82.18;102527.38;5052138;28;20049;-72
2021/11/24 03:30:29;;;;;;;38.17;28.67;;;10.60;99.90;;;10.97;81.78;102532.00;5052231;28;20071;-72
2021/11/24 03:33:00;;;;;;;39.42;28.52;;;10.70;99.90;;;10.97;81.48;102517.84;5052545;28;20041;-72
2021/11/24 03:35:30;;;;;;;37.80;29.05;;;10.70;99.90;;;10.49;81.13;102414.53;5052482;28;20045;-72
2021/11/24 03:38:01;;;;;;;38.80;28.50;;;10.80;99.90;;;11.12;80.93;102519.06;5052098;28;20131;-72
2021/11/24 03:40:34;;;;;;;33.80;25.45;;;10.80;99.90;;;11.16;80.85;102512.97;5067837;28;20077;-72
2021/11/24 03:43:03;;;;;;;37.17;26.88;;;10.90;99.90;;;10.97;80.88;102508.16;5052705;28;20052;-73
2021/11/24 03:45:35;;;;;;;35.20;25.40;;;10.70;99.90;;;10.93;81.62;102508.06;5052022;28;20128;-72
2021/11/24 03:48:06;;;;;;;33.67;26.42;;;10.60;99.90;;;11.07;81.06;102501.28;5051935;28;20090;-73
2021/11/24 03:50:35;;;;;;;34.70;25.10;;;10.70;99.90;;;11.14;80.69;102490.84;5051962;28;20086;-72
2021/11/24 03:53:04;;;;;;;34.35;25.30;;;10.80;99.90;;;11.25;80.27;102488.38;5054739;28;20091;-72
2021/11/24 03:55:33;;;;;;;34.90;25.23;;;10.90;99.90;;;11.13;80.13;102482.88;5055824;28;20049;-72
2021/11/24 03:58:02;;;;;;;34.40;25.13;;;10.90;99.90;;;11.15;80.53;102486.47;5055685;28;20075;-72
2021/11/24 04:00:33;;;;;;;33.63;24.40;;;10.80;99.90;;;11.14;80.36;102477.59;5055597;28;20046;-72
2021/11/24 04:03:01;;;;;;;31.48;23.63;;;10.90;99.90;;;11.24;80.18;102489.25;5055303;28;20483;-72
2021/11/24 04:05:30;;;;;;;34.17;24.00;;;10.90;99.90;;;11.16;80.22;102496.16;5055235;28;20043;-72
2021/11/24 04:07:59;;;;;;;30.70;24.20;;;10.80;99.90;;;11.18;80.33;102492.69;5055130;28;20045;-72
2021/11/24 04:10:29;;;;;;;33.83;24.98;;;10.70;99.90;;;11.19;80.32;102489.16;5055059;28;20391;-72
2021/11/24 04:12:57;;;;;;;32.67;25.17;;;10.80;99.90;;;11.16;80.39;102490.88;5055072;28;20045;-72
2021/11/24 04:15:26;;;;;;;36.53;25.67;;;10.80;99.90;;;11.11;80.56;102490.78;5055227;28;20482;-72
2021/11/24 04:17:54;;;;;;;31.45;24.30;;;10.90;99.90;;;11.17;80.82;102476.78;5054954;28;20387;-72
2021/11/24 04:20:23;;;;;;;34.35;25.63;;;10.80;99.90;;;11.16;80.79;102483.81;5054863;28;20053;-72
2021/11/24 04:22:51;;;;;;;33.42;24.75;;;10.90;99.90;;;11.18;80.69;102476.81;5055118;28;20052;-72
2021/11/24 04:25:19;;;;;;;32.58;25.13;;;10.90;99.90;;;11.16;80.06;102445.84;5053773;28;20459;-73
2021/11/24 04:27:49;;;;;;;35.20;25.33;;;11.00;99.90;;;11.29;80.27;102475.25;5053708;28;20048;-72
2021/11/24 04:30:20;;;;;;;32.83;23.85;;;11.00;99.90;;;11.12;80.49;102471.38;5054682;28;20458;-72
2021/11/24 04:32:50;;;;;;;32.60;24.20;;;10.80;99.90;;;10.89;80.93;102465.66;5055031;28;20079;-72
2021/11/24 04:35:20;;;;;;;32.53;23.48;;;10.60;99.90;;;10.67;81.60;102433.41;5054654;28;20383;-73
2021/11/24 04:37:48;;;;;;;31.90;23.30;;;10.50;99.90;;;10.84;81.82;102455.81;5054556;28;20169;-72
2021/11/24 04:40:17;;;;;;;33.50;24.05;;;10.50;99.90;;;10.64;82.47;102452.78;5054752;28;20401;-73
2021/11/24 04:42:51;;;;;;;33.40;24.13;;;10.40;99.90;;;10.42;83.41;102453.19;5054563;28;20103;-72
2021/11/24 04:45:19;;;;;;;29.98;24.10;;;10.10;99.90;;;10.16;84.65;102454.38;5054766;28;20049;-72
2021/11/24 04:47:48;;;;;;;33.85;24.30;;;10.00;99.90;;;10.13;85.56;102448.09;5054386;28;20439;-72
2021/11/24 04:50:18;;;;;;;31.80;24.13;;;9.80;99.90;;;10.04;85.88;102438.19;5054003;28;20072;-73
2021/11/24 04:52:48;;;;;;;31.83;23.42;;;9.70;99.90;;;10.01;86.54;102435.47;5054230;28;20284;-73
2021/11/24 04:55:16;;;;;;;35.70;25.60;;;9.70;99.90;;;10.20;86.13;102435.03;5069888;28;20076;-72
2021/11/24 04:57:49;;;;;;;32.35;24.73;;;9.80;99.90;;;10.11;86.03;102436.59;5054262;28;20052;-72
2021/11/24 05:00:21;;;;;;;37.67;25.58;;;9.80;99.90;;;9.87;86.96;102434.28;5054429;28;20033;-73
2021/11/24 05:02:52;;;;;;;37.20;25.85;;;9.60;99.90;;;9.60;88.09;102418.63;5054016;28;20041;-74
2021/11/24 05:05:23;;;;;;;42.65;28.77;;;9.40;99.90;;;9.52;88.74;102414.94;5053082;28;20049;-72
2021/11/24 05:07:52;;;;;;;41.70;29.02;;;9.30;99.90;;;9.31;89.43;102414.38;5052931;28;20408;-72
2021/11/24 05:10:20;;;;;;;42.25;27.42;;;9.10;99.90;;;9.40;89.82;102427.81;5053808;28;20041;-70
2021/11/24 05:12:51;;;;;;;37.88;26.95;;;9.10;99.90;;;9.47;90.31;102416.53;5053947;28;20041;-71
2021/11/24 05:15:22;;;;;;;44.05;27.38;;;9.20;99.90;;;9.46;90.57;102420.06;5069587;28;20049;-70
2021/11/24 05:17:56;;;;;;;41.15;27.05;;;9.20;99.90;;;9.39;90.31;102380.25;5054224;28;20128;-69
2021/11/24 05:20:28;;;;;;;50.15;27.35;;;9.30;99.90;;;9.56;90.28;102410.59;5053927;28;20506;-68
2021/11/24 05:22:59;;;;;;;42.35;27.60;;;9.30;99.90;;;9.56;90.16;102406.19;5053830;28;20103;-69
2021/11/24 05:25:28;;;;;;;45.53;28.48;;;9.30;99.90;;;9.29;90.20;102363.25;5053736;28;20090;-70
2021/11/24 05:27:58;;;;;;;41.67;28.23;;;9.40;99.90;;;9.53;90.40;102407.88;5053694;28;20056;-69
2021/11/24 05:30:27;;;;;;;41.78;28.30;;;9.30;99.90;;;9.53;90.70;102406.13;5053463;28;20041;-69
2021/11/24 05:32:57;;;;;;;46.83;28.83;;;9.30;99.90;;;9.76;90.33;102406.69;5053731;28;20473;-69
2021/11/24 05:35:26;;;;;;;38.28;28.10;;;9.50;99.90;;;10.04;90.00;102409.97;5053529;28;20071;-69
2021/11/24 05:37:54;;;;;;;42.63;28.60;;;9.70;99.90;;;10.24;88.81;102420.16;5053460;28;20474;-69
2021/11/24 05:40:24;;;;;;;42.45;28.80;;;10.00;99.90;;;10.27;88.06;102418.47;5053715;28;20048;-69
2021/11/24 05:42:53;;;;;;;41.17;28.73;;;10.00;99.90;;;10.33;87.61;102410.69;5053389;28;20037;-69
2021/11/24 05:45:39;;;;;;;42.63;29.70;;;10.10;99.90;;;10.43;87.04;102417.03;5053378;28;20049;-69
2021/11/24 05:48:10;;;;;;;40.20;28.70;;;10.20;99.90;;;10.55;86.54;102412.03;5053911;28;20099;-69
2021/11/24 05:50:43;;;;;;;38.25;28.00;;;10.30;99.90;;;10.58;86.07;102415.63;5053043;28;20056;-69
2021/11/24 05:53:16;;;;;;;41.95;26.80;;;10.40;99.90;;;10.58;85.52;102385.59;5053867;28;20049;-69
2021/11/24 05:55:44;;;;;;;41.47;28.80;;;10.50;99.90;;;10.79;85.20;102409.84;5053568;28;20048;-69
2021/11/24 05:58:14;;;;;;;41.45;28.60;;;10.60;99.90;;;10.79;84.78;102396.59;5053159;28;20080;-69
2021/11/24 06:00:44;;;;;;;41.15;29.63;;;10.60;99.90;;;10.83;84.34;102402.00;5053136;28;20521;-69
2021/11/24 06:03:12;;;;;;;38.37;27.63;;;10.60;99.90;;;10.90;84.22;102395.03;5053107;28;20056;-69
2021/11/24 06:05:41;;;;;;;41.92;27.60;;;10.70;99.90;;;10.97;83.94;102390.78;5053648;28;20166;-69
2021/11/24 06:08:09;;;;;;;41.85;28.88;;;10.70;99.90;;;10.96;83.66;102384.56;5053320;28;20087;-69
2021/11/24 06:10:37;;;;;;;39.65;27.40;;;10.70;99.90;;;10.98;83.46;102382.84;5052810;28;20542;-69
2021/11/24 06:13:06;;;;;;;42.88;28.38;;;10.70;99.90;;;10.88;83.17;102379.13;5053000;28;20072;-69
2021/11/24 06:15:34;;;;;;;45.30;28.95;;;10.60;99.90;;;10.85;83.71;102386.13;5052555;28;20087;-69
2021/11/24 06:18:05;;;;;;;40.03;27.50;;;10.60;99.90;;;10.56;84.64;102388.22;5053071;28;20553;-69
2021/11/24 06:20:33;;;;;;;45.22;29.90;;;10.30;99.90;;;10.35;85.80;102386.91;5052083;28;20122;-69
2021/11/24 06:23:02;;;;;;;43.83;32.00;;;10.10;99.90;;;10.52;85.51;102381.09;5053249;28;20521;-69
2021/11/24 06:25:30;;;;;;;44.67;31.83;;;10.20;99.90;;;10.67;85.23;102372.53;5053138;28;20120;-69
2021/11/24 06:27:58;;;;;;;46.42;32.08;;;10.40;99.90;;;10.79;84.95;102378.97;5052932;28;20079;-69
2021/11/24 06:30:27;;;;;;;45.85;31.20;;;10.50;99.90;;;10.87;84.27;102371.19;5053309;28;20041;-69
2021/11/24 06:32:55;;;;;;;47.55;34.03;;;10.60;99.90;;;10.72;84.70;102369.13;5053194;28;20041;-69
2021/11/24 06:35:25;;;;;;;44.97;32.50;;;10.40;99.90;;;10.45;85.25;102371.22;5053184;28;20463;-69
2021/11/24 06:37:54;;;;;;;46.58;32.78;;;10.20;99.90;;;10.40;85.97;102369.34;5053204;28;20399;-69
2021/11/24 06:40:22;;;;;;;49.58;33.75;;;10.10;99.90;;;10.40;86.16;102357.03;5053151;28;20077;-69
2021/11/24 06:42:51;;;;;;;46.92;33.97;;;10.10;99.90;;;10.61;85.90;102368.03;5052898;28;20068;-69
2021/11/24 06:45:22;;;;;;;47.33;34.13;;;10.20;99.90;;;10.65;85.49;102371.63;5053365;28;20037;-70
2021/11/24 06:47:51;;;;;;;46.35;34.08;;;10.30;99.90;;;10.73;85.34;102364.72;5052948;28;20049;-69
2021/11/24 06:50:19;;;;;;;46.28;32.63;;;10.40;99.90;;;10.75;84.80;102355.06;5053086;28;20079;-69
2021/11/24 06:52:49;;;;;;;47.15;33.60;;;10.40;99.90;;;10.74;85.15;102358.59;5052804;28;20557;-70
2021/11/24 06:55:18;;;;;;;51.20;34.47;;;10.40;99.90;;;10.65;85.03;102368.97;5052857;28;20044;-69
2021/11/24 06:57:46;;;;;;;47.97;34.75;;;10.40;99.90;;;10.63;85.31;102365.41;5053018;28;20447;-69
2021/11/24 07:00:15;;;;;;;51.22;34.35;;;10.40;99.90;;;10.50;85.55;102351.06;5053261;28;20498;-69
2021/11/24 07:02:44;;;;;;;49.13;34.63;;;10.30;99.90;;;10.36;86.16;102349.88;5052427;28;20128;-69
2021/11/24 07:05:13;;;;;;;48.80;34.63;;;10.10;99.90;;;10.49;86.33;102354.56;5052368;28;20499;-69
2021/11/24 07:07:44;;;;;;;49.08;34.13;;;10.20;99.90;;;10.63;86.28;102355.72;5051278;28;20053;-69
2021/11/24 07:10:13;;;;;;;46.13;33.90;;;10.30;99.90;;;10.74;85.47;102350.66;5052133;28;20067;-69
2021/11/24 07:12:42;;;;;;;46.92;34.28;;;10.50;99.90;;;10.73;85.37;102346.19;5052540;28;20111;-69
2021/11/24 07:15:11;;;;;;;49.40;34.13;;;10.50;99.90;;;10.70;85.46;102341.72;5052133;28;20091;-69
2021/11/24 07:17:39;;;;;;;46.05;32.83;;;10.50;99.90;;;10.61;85.31;102344.22;5052298;28;20045;-69
2021/11/24 07:20:09;;;;;;;43.42;34.03;;;10.40;99.90;;;10.32;86.56;102344.50;5052257;28;20045;-69
2021/11/24 07:22:37;;;;;;;46.27;34.23;;;10.10;99.90;;;10.35;86.80;102350.78;5050923;28;20099;-69
2021/11/24 07:25:07;;;;;;;47.17;33.72;;;10.10;99.90;;;10.40;86.82;102353.47;5052194;28;20131;-69
2021/11/24 07:27:38;;;;;;;47.00;33.17;;;10.10;99.90;;;10.23;87.04;102332.00;5054475;28;20545;-70
2021/11/24 07:30:09;;;;;;;45.47;33.60;;;10.20;99.90;;;10.31;86.74;102348.03;5055949;28;20068;-70
2021/11/24 07:32:38;;;;;;;50.03;33.33;;;10.10;99.90;;;10.11;87.96;102354.63;5055726;28;20068;-70
2021/11/24 07:35:08;;;;;;;53.15;33.42;;;9.90;99.90;;;10.06;88.51;102350.97;5055667;28;20037;-70
2021/11/24 07:37:36;;;;;;;55.35;35.65;;;9.90;99.90;;;9.87;89.22;102347.91;5055560;28;20490;-67
2021/11/24 07:40:07;;;;;;;48.47;34.25;;;9.70;99.90;;;9.77;89.53;102339.78;5055815;28;20498;-68
2021/11/24 07:42:37;;;;;;;54.83;36.80;;;9.70;99.90;;;9.76;89.96;102346.81;5055612;28;20037;-74
2021/11/24 07:45:07;;;;;;;57.08;38.28;;;9.60;99.90;;;9.69;90.48;102350.19;5055868;28;20056;-72
2021/11/24 07:47:36;;;;;;;58.60;38.63;;;9.60;99.90;;;9.60;91.14;102339.38;5054252;28;20130;-73
2021/11/24 07:50:06;;;;;;;54.03;37.97;;;9.60;99.90;;;9.57;91.39;102339.31;5055440;28;20501;-73
2021/11/24 07:52:35;;;;;;;62.17;38.97;;;9.50;99.90;;;9.52;91.57;102343.63;5055358;28;20556;-74
2021/11/24 07:55:05;;;;;;;57.28;38.63;;;9.50;99.90;;;9.46;92.07;102342.56;5055351;28;20057;-73
2021/11/24 07:57:34;;;;;;;56.15;37.08;;;9.40;99.90;;;9.43;92.28;102339.84;5055388;28;20091;-75
2021/11/24 08:00:05;;;;;;;54.78;39.30;;;9.30;99.90;;;9.58;92.19;102335.81;5055829;28;20124;-73
2021/11/24 08:02:40;;;;;;;52.15;36.58;;;9.40;99.90;;;9.43;92.21;102322.25;5055085;28;20156;-72
2021/11/24 08:05:09;;;;;;;51.30;36.30;;;9.40;99.90;;;9.39;91.96;102314.25;5055696;28;20098;-72
2021/11/24 08:07:53;;;;;;;55.20;36.53;;;9.40;99.90;;;9.43;92.00;102324.00;5055190;28;20045;-71
2021/11/24 08:10:23;;;;;;;53.47;36.67;;;9.40;99.90;;;9.30;92.03;102300.78;5055081;28;20135;-72
2021/11/24 08:12:51;;;;;;;49.75;35.33;;;9.40;99.90;;;9.43;92.15;102321.34;5055012;28;20383;-72
2021/11/24 08:15:22;;;;;;;54.75;36.40;;;9.30;99.90;;;9.37;92.02;102308.03;5070452;28;20136;-71
2021/11/24 08:17:51;;;;;;;50.80;33.70;;;9.30;99.90;;;9.49;91.98;102322.41;5054915;28;20044;-72
2021/11/24 08:20:19;;;;;;;50.85;34.10;;;9.40;99.90;;;9.48;91.55;102312.69;5054817;28;20132;-70
2021/11/24 08:22:48;;;;;;;48.28;33.63;;;9.40;99.90;;;9.56;91.35;102307.59;5054824;28;20064;-70
2021/11/24 08:25:16;;;;;;;49.40;32.50;;;9.50;99.90;;;9.62;90.79;102324.44;5054735;28;20098;-71
2021/11/24 08:27:45;;;;;;;48.22;31.17;;;9.50;99.90;;;9.64;91.08;102316.59;5054687;28;20708;-73
2021/11/24 08:30:14;;;;;;;47.25;30.77;;;9.50;99.90;;;9.75;90.95;102317.72;5054664;28;20041;-72
2021/11/24 08:32:46;;;;;;;42.10;30.50;;;9.60;99.90;;;9.69;90.62;102301.72;5054936;28;20041;-72
2021/11/24 08:35:15;;;;;;;40.90;27.65;;;9.60;99.90;;;9.74;89.90;102306.25;5054917;28;20041;-71
2021/11/24 08:37:43;;;;;;;38.38;28.42;;;9.60;99.90;;;9.80;90.05;102306.38;5054113;28;20103;-71
2021/11/24 08:40:13;;;;;;;39.75;27.50;;;9.60;99.90;;;9.75;89.94;102302.75;5054562;28;20044;-71
2021/11/24 08:42:42;;;;;;;37.72;27.25;;;9.60;99.90;;;9.64;89.74;102291.03;5054854;28;20072;-74
2021/11/24 08:45:11;;;;;;;36.45;25.80;;;9.60;99.90;;;9.67;89.77;102291.13;5054441;28;20048;-72
2021/11/24 08:47:42;;;;;;;35.38;25.92;;;9.60;99.90;;;9.62;89.88;102262.81;5054345;28;20384;-72
2021/11/24 08:50:13;;;;;;;;;;;9.60;99.90;;;9.84;88.96;102291.47;5055035;28;20103;-73
2021/11/24 08:52:42;;;;;;;37.33;26.25;;;9.70;99.90;;;9.32;88.53;102186.44;5054625;28;20043;-71
2021/11/24 08:55:12;;;;;;;40.88;26.63;;;9.80;99.90;;;9.92;88.73;102288.16;5054181;28;20053;-72
2021/11/24 08:57:42;;;;;;;38.40;24.63;;;9.80;99.90;;;9.80;88.43;102265.84;5054164;28;20037;-71
2021/11/24 09:00:14;;;;;;;30.98;23.80;;;9.80;99.90;;;9.90;88.69;102286.31;5054096;28;20696;-72
2021/11/24 09:02:44;;;;;;;35.20;24.30;;;9.80;99.90;;;9.93;87.99;102281.09;5052955;28;20402;-68
2021/11/24 09:05:14;;;;;;;30.27;23.02;;;9.80;99.90;;;9.91;88.25;102277.56;5054362;28;20475;-67
2021/11/24 09:07:43;;;;;;;31.80;22.88;;;9.70;99.90;;;9.96;88.14;102281.16;5054046;28;20379;-68
2021/11/24 09:10:13;;;;;;;29.38;22.88;;;9.80;99.90;;;9.98;88.29;102274.16;5054302;28;20045;-72
2021/11/24 09:12:42;;;;;;;32.10;23.83;;;9.80;99.90;;;9.99;88.12;102276.81;5053901;28;20049;-72
2021/11/24 09:15:10;;;;;;;30.30;22.75;;;9.80;99.90;;;9.85;88.27;102277.41;5069604;28;20039;-73
2021/11/24 09:17:58;;;;;;;31.42;22.17;;;9.60;99.90;;;9.75;88.33;102276.34;5054164;28;20128;-73
2021/11/24 09:20:28;;;;;;;32.97;23.33;;;9.60;99.90;;;9.75;88.79;102271.03;5052835;28;20103;-72
2021/11/24 09:22:57;;;;;;;28.95;21.08;;;9.50;99.90;;;9.96;88.77;102266.22;5053986;28;20073;-72
2021/11/24 09:25:35;;;;;;;29.35;21.70;;;9.60;99.90;;;9.93;88.26;102268.75;5054278;28;20037;-74
2021/11/24 09:28:10;;;;;;;6.00;5.63;;;9.70;99.90;;;10.08;87.58;102269.94;5052694;28;20049;-72
2021/11/24 09:30:40;;;;;;;18.58;11.07;;;9.90;99.90;;;10.11;86.61;102265.63;5053666;28;20478;-72
2021/11/24 09:33:09;;;;;;;5.43;5.15;;;10.00;99.90;;;10.28;86.23;102258.06;5053472;28;20069;-74
2021/11/24 09:35:40;;;;;;;5.43;5.22;;;10.10;99.90;;;10.16;85.31;102258.72;5053848;28;20087;-75
2021/11/24 09:38:11;;;;;;;5.95;5.57;;;10.10;99.90;;;10.18;85.03;102253.44;5053662;28;20482;-76
2021/11/24 09:40:40;;;;;;;5.47;5.18;;;10.10;99.90;;;10.18;85.35;102250.81;5053725;28;20060;-74
2021/11/24 09:43:11;;;;;;;5.88;5.57;;;10.10;99.90;;;10.25;85.69;102250.94;5054123;28;20075;-74
2021/11/24 09:45:43;;;;;;;6.38;5.97;;;10.10;99.90;;;9.93;85.65;102207.06;5053979;28;20048;-76
2021/11/24 09:48:16;;;;;;;7.50;6.50;;;10.00;99.90;;;10.17;86.38;102239.31;5054244;28;20107;-75
2021/11/24 09:50:49;;;;;;;5.57;5.28;;;10.00;99.90;;;10.13;86.74;102234.84;5052775;28;20076;-76
2021/11/24 09:53:19;;;;;;;4.80;4.60;;;10.00;99.90;;;10.09;86.52;102240.00;5053300;28;20447;-75
2021/11/24 09:55:48;;;;;;;5.97;5.68;;;9.90;99.90;;;9.99;86.27;102234.53;5053372;28;20049;-76
2021/11/24 09:58:20;;;;;;;7.03;6.53;;;9.90;99.90;;;10.02;86.28;102223.13;5053250;28;20098;-76
2021/11/24 10:00:49;;;;;;;6.50;6.13;;;9.90;99.90;;;10.14;86.09;102234.00;5052026;28;20068;-75
2021/11/24 10:03:19;;;;;;;6.38;6.07;;;10.00;99.90;;;10.26;86.04;102246.56;5052998;28;20045;-74
2021/11/24 10:05:49;;;;;;;5.05;4.85;;;10.10;99.90;;;10.18;85.75;102234.94;5052990;28;20055;-75
2021/11/24 10:08:38;;;;;;;5.53;5.23;;;10.10;99.90;;;10.40;84.40;102237.09;5053440;28;20049;-73
2021/11/24 10:11:06;;;;;;;4.93;4.72;;;10.20;99.90;;;10.39;83.95;102240.63;5052877;28;20140;-74
2021/11/24 10:13:35;;;;;;;5.60;5.32;;;10.30;99.90;;;10.55;83.14;102232.09;5052639;28;20045;-76
2021/11/24 10:16:04;;;;;;;7.00;6.50;;;10.40;99.90;;;10.57;81.95;102225.94;5052727;28;20064;-71